Time;durP1;ratioP1;P1;durP2;ratioP2;P2;SDS_P1;SDS_P2;PMS_P1;PMS_P2;Temp;Humidity;BMP_temperature;BMP_pressure;BME280_temperature;BME280_humidity;BME280_pressure;Samples;Min_cycle;Max_cycle;Signal;HPM_P1;HPM_P2
2023/08/27 00:00:50;;;;;;;18.50;4.70;;;;;;;;;;5093317;28;20409;-65
2023/08/27 00:03:16;;;;;;;7.17;4.70;;;;;;;;;;5093094;28;20467;-65
2023/08/27 00:05:42;;;;;;;7.93;4.60;;;;;;;;;;5093091;28;20407;-65
2023/08/27 00:08:09;;;;;;;11.17;4.10;;;;;;;;;;5092988;28;20967;-65
2023/08/27 00:10:35;;;;;;;8.63;4.27;;;;;;;;;;5093424;28;20424;-65
2023/08/27 00:13:00;;;;;;;4.57;4.17;;;;;;;;;;5093159;28;20494;-65
2023/08/27 00:15:26;;;;;;;6.83;4.50;;;;;;;;;;5093520;28;20496;-65
2023/08/27 00:17:52;;;;;;;4.63;4.13;;;;;;;;;;5092912;28;20877;-65
2023/08/27 00:20:18;;;;;;;4.60;4.20;;;;;;;;;;5093104;28;20510;-65
2023/08/27 00:22:44;;;;;;;5.27;4.70;;;;;;;;;;5092743;28;20445;-65
2023/08/27 00:25:10;;;;;;;8.07;5.00;;;;;;;;;;5093323;28;20462;-65
2023/08/27 00:27:36;;;;;;;12.77;4.80;;;;;;;;;;5091699;28;20443;-65
2023/08/27 00:30:06;;;;;;;15.53;4.60;;;;;;;;;;5093081;28;20425;-65
2023/08/27 00:32:33;;;;;;;4.60;4.30;;;;;;;;;;5092811;28;20413;-65
2023/08/27 00:34:59;;;;;;;5.23;4.30;;;;;;;;;;5092273;28;20436;-65
2023/08/27 00:37:27;;;;;;;7.43;3.90;;;;;;;;;;5092966;28;20814;-65
2023/08/27 00:39:55;;;;;;;6.63;3.70;;;;;;;;;;5091182;28;20420;-66
2023/08/27 00:42:22;;;;;;;12.37;4.50;;;;;;;;;;5091405;28;20506;-65
2023/08/27 00:44:50;;;;;;;8.07;5.10;;;;;;;;;;5092778;28;20849;-65
2023/08/27 00:47:17;;;;;;;7.13;4.50;;;;;;;;;;5091723;28;20831;-65
2023/08/27 00:49:43;;;;;;;7.23;4.90;;;;;;;;;;5092952;28;20752;-65
2023/08/27 00:52:09;;;;;;;10.47;4.63;;;;;;;;;;5092238;28;20419;-65
2023/08/27 00:54:35;;;;;;;9.90;4.90;;;;;;;;;;5092684;28;20715;-65
2023/08/27 00:57:05;;;;;;;7.97;3.90;;;;;;;;;;5092477;28;20432;-65
2023/08/27 00:59:31;;;;;;;9.97;4.50;;;;;;;;;;5092188;28;20534;-65
2023/08/27 01:01:57;;;;;;;10.97;4.57;;;;;;;;;;5092807;28;20867;-65
2023/08/27 01:04:23;;;;;;;9.23;4.00;;;;;;;;;;5092255;28;20427;-65
2023/08/27 01:06:52;;;;;;;6.80;3.93;;;;;;;;;;5092764;28;20932;-65
2023/08/27 01:09:32;;;;;;;11.63;4.63;;;;;;;;;;5092467;28;20828;-65
2023/08/27 01:12:17;;;;;;;6.93;5.00;;;;;;;;;;5091951;28;20804;-65
2023/08/27 01:14:47;;;;;;;4.10;3.83;;;;;;;;;;5092296;28;20439;-65
2023/08/27 01:17:16;;;;;;;4.67;4.27;;;;;;;;;;5092243;28;20513;-65
2023/08/27 01:19:44;;;;;;;9.53;4.97;;;;;;;;;;5092577;28;20435;-65
2023/08/27 01:22:13;;;;;;;9.87;4.83;;;;;;;;;;5091772;28;20838;-65
2023/08/27 01:24:41;;;;;;;8.10;4.77;;;;;;;;;;5092244;28;20412;-65
2023/08/27 01:27:10;;;;;;;9.23;5.00;;;;;;;;;;5092087;28;20407;-65
2023/08/27 01:29:38;;;;;;;14.23;5.73;;;;;;;;;;5092206;28;20451;-66
2023/08/27 01:32:16;;;;;;;6.67;4.60;;;;;;;;;;5092285;28;20408;-65
2023/08/27 01:34:43;;;;;;;9.23;4.57;;;;;;;;;;5091000;28;20445;-65
2023/08/27 01:37:13;;;;;;;4.10;3.80;;;;;;;;;;5091921;28;20987;-65
2023/08/27 01:39:39;;;;;;;3.77;3.57;;;;;;;;;;5092070;28;20409;-65
2023/08/27 01:42:05;;;;;;;11.20;4.50;;;;;;;;;;5092048;28;20932;-65
2023/08/27 01:44:31;;;;;;;7.40;4.43;;;;;;;;;;5092089;28;20421;-65
2023/08/27 01:46:57;;;;;;;4.87;4.50;;;;;;;;;;5091912;28;20499;-65
2023/08/27 01:49:25;;;;;;;7.23;4.53;;;;;;;;;;5091750;28;20528;-65
2023/08/27 01:51:54;;;;;;;6.80;5.10;;;;;;;;;;5092104;28;20411;-65
2023/08/27 01:54:23;;;;;;;4.17;3.97;;;;;;;;;;5091732;28;20429;-65
2023/08/27 01:56:48;;;;;;;7.70;4.47;;;;;;;;;;5091992;28;20903;-65
2023/08/27 01:59:17;;;;;;;6.67;4.60;;;;;;;;;;5091794;28;20414;-65
2023/08/27 02:01:43;;;;;;;4.67;4.00;;;;;;;;;;5095648;28;20420;-65
2023/08/27 02:04:11;;;;;;;8.53;4.10;;;;;;;;;;5095927;28;20446;-65
2023/08/27 02:06:37;;;;;;;4.63;4.27;;;;;;;;;;5095705;28;20480;-65
2023/08/27 02:09:03;;;;;;;7.23;4.47;;;;;;;;;;5095731;28;20895;-65
2023/08/27 02:11:29;;;;;;;4.40;4.10;;;;;;;;;;5095873;28;20400;-65
2023/08/27 02:13:55;;;;;;;4.37;4.10;;;;;;;;;;5094931;28;20822;-65
2023/08/27 02:16:24;;;;;;;8.90;4.70;;;;;;;;;;5095261;28;20450;-65
2023/08/27 02:18:50;;;;;;;4.70;4.30;;;;;;;;;;5095367;28;20477;-65
2023/08/27 02:21:16;;;;;;;10.20;4.60;;;;;;;;;;5095629;28;20413;-65
2023/08/27 02:23:42;;;;;;;17.70;4.27;;;;;;;;;;5095468;28;20489;-65
2023/08/27 02:26:08;;;;;;;4.07;3.67;;;;;;;;;;5094173;28;20415;-65
2023/08/27 02:28:34;;;;;;;4.70;4.23;;;;;;;;;;5093852;28;20489;-65
2023/08/27 02:31:00;;;;;;;6.77;5.03;;;;;;;;;;5093607;28;20411;-65
2023/08/27 02:33:26;;;;;;;10.30;5.17;;;;;;;;;;5095101;28;20938;-65
2023/08/27 02:35:54;;;;;;;7.70;4.80;;;;;;;;;;5094589;28;20522;-65
2023/08/27 02:38:22;;;;;;;9.60;5.30;;;;;;;;;;5095095;28;20471;-65
2023/08/27 02:40:48;;;;;;;8.67;5.07;;;;;;;;;;5093942;28;20411;-65
2023/08/27 02:43:14;;;;;;;17.17;5.60;;;;;;;;;;5095306;28;20469;-65
2023/08/27 02:45:41;;;;;;;5.80;5.27;;;;;;;;;;5094784;28;20410;-65
2023/08/27 02:48:07;;;;;;;10.23;5.53;;;;;;;;;;5094714;28;20422;-65
2023/08/27 02:50:33;;;;;;;7.70;5.30;;;;;;;;;;5093286;28;20427;-65
2023/08/27 02:52:59;;;;;;;11.53;6.10;;;;;;;;;;5094842;28;20795;-65
2023/08/27 02:55:31;;;;;;;11.13;5.20;;;;;;;;;;5093067;28;20933;-65
2023/08/27 02:57:57;;;;;;;6.93;5.50;;;;;;;;;;5094468;28;20580;-65
2023/08/27 03:00:23;;;;;;;5.70;5.20;;;;;;;;;;5094336;28;20411;-65
2023/08/27 03:02:49;;;;;;;6.17;4.77;;;;;;;;;;5094581;28;20414;-65
2023/08/27 03:05:15;;;;;;;5.50;5.10;;;;;;;;;;5094481;28;20442;-65
2023/08/27 03:07:41;;;;;;;6.67;6.00;;;;;;;;;;5094515;28;20413;-65
2023/08/27 03:10:08;;;;;;;6.67;6.13;;;;;;;;;;5094383;28;20923;-65
2023/08/27 03:12:36;;;;;;;6.50;5.93;;;;;;;;;;5093975;28;20467;-65
2023/08/27 03:15:02;;;;;;;6.13;5.57;;;;;;;;;;5094408;28;20809;-65
2023/08/27 03:17:28;;;;;;;7.27;6.60;;;;;;;;;;5093640;28;20995;-65
2023/08/27 03:19:56;;;;;;;7.93;6.10;;;;;;;;;;5094009;28;20447;-65
2023/08/27 03:22:22;;;;;;;6.30;5.70;;;;;;;;;;5093929;28;20849;-65
2023/08/27 03:24:48;;;;;;;8.00;5.50;;;;;;;;;;5094189;28;20456;-65
2023/08/27 03:27:14;;;;;;;6.20;5.60;;;;;;;;;;5094004;28;20431;-65
2023/08/27 03:29:40;;;;;;;10.67;6.77;;;;;;;;;;5093570;28;20419;-65
2023/08/27 03:32:06;;;;;;;6.10;5.70;;;;;;;;;;5093994;28;20419;-65
2023/08/27 03:34:35;;;;;;;6.90;5.90;;;;;;;;;;5093963;28;20438;-65
2023/08/27 03:37:01;;;;;;;6.27;5.83;;;;;;;;;;5093524;28;20421;-65
2023/08/27 03:39:27;;;;;;;6.13;5.60;;;;;;;;;;5093758;28;20404;-65
2023/08/27 03:41:53;;;;;;;6.80;6.17;;;;;;;;;;5094130;28;20413;-65
2023/08/27 03:44:19;;;;;;;11.50;5.90;;;;;;;;;;5093572;28;20488;-65
2023/08/27 03:46:45;;;;;;;10.03;5.80;;;;;;;;;;5093529;28;20417;-65
2023/08/27 03:49:11;;;;;;;6.03;5.63;;;;;;;;;;5093575;28;20882;-65
2023/08/27 03:51:37;;;;;;;6.07;5.50;;;;;;;;;;5093488;28;20426;-65
2023/08/27 03:54:05;;;;;;;10.20;5.73;;;;;;;;;;5092133;28;20976;-65
2023/08/27 03:56:31;;;;;;;9.97;5.83;;;;;;;;;;5091857;28;20421;-65
2023/08/27 03:59:00;;;;;;;11.50;4.77;;;;;;;;;;5093023;28;20477;-65
2023/08/27 04:01:26;;;;;;;5.53;5.00;;;;;;;;;;5093059;28;20412;-65
2023/08/27 04:03:54;;;;;;;6.27;5.87;;;;;;;;;;5093086;28;20430;-65
2023/08/27 04:06:21;;;;;;;10.87;5.03;;;;;;;;;;5093419;28;20422;-65
2023/08/27 04:08:49;;;;;;;8.30;5.27;;;;;;;;;;5092957;28;20781;-65
2023/08/27 04:11:16;;;;;;;7.87;5.70;;;;;;;;;;5092509;28;20413;-65
2023/08/27 04:13:42;;;;;;;6.10;5.73;;;;;;;;;;5093129;28;20433;-65
2023/08/27 04:16:08;;;;;;;5.80;5.00;;;;;;;;;;5093523;28;20433;-65
2023/08/27 04:18:34;;;;;;;7.23;5.70;;;;;;;;;;5093048;28;20465;-65
2023/08/27 04:21:02;;;;;;;5.70;5.20;;;;;;;;;;5093384;28;20522;-65
2023/08/27 04:23:28;;;;;;;5.30;4.93;;;;;;;;;;5092681;28;20462;-65
2023/08/27 04:25:56;;;;;;;6.50;6.00;;;;;;;;;;5092877;28;20424;-65
2023/08/27 04:28:23;;;;;;;10.00;5.60;;;;;;;;;;5092586;28;20498;-65
2023/08/27 04:30:50;;;;;;;18.27;5.40;;;;;;;;;;5093153;28;20843;-65
2023/08/27 04:33:16;;;;;;;10.37;5.60;;;;;;;;;;5092435;28;20422;-65
2023/08/27 04:35:44;;;;;;;5.03;4.70;;;;;;;;;;5092752;28;20431;-65
2023/08/27 04:38:12;;;;;;;5.70;5.20;;;;;;;;;;5091938;28;20911;-65
2023/08/27 04:40:38;;;;;;;8.73;5.37;;;;;;;;;;5092399;28;20952;-65
2023/08/27 04:43:06;;;;;;;9.40;6.20;;;;;;;;;;5092253;28;20421;-65
2023/08/27 04:45:32;;;;;;;5.73;5.30;;;;;;;;;;5091825;28;20410;-65
2023/08/27 04:47:58;;;;;;;7.30;4.30;;;;;;;;;;5092742;28;20427;-65
2023/08/27 04:50:24;;;;;;;5.50;5.10;;;;;;;;;;5092777;28;20419;-65
2023/08/27 04:52:50;;;;;;;5.77;5.13;;;;;;;;;;5092814;28;20416;-65
2023/08/27 04:55:16;;;;;;;11.30;5.47;;;;;;;;;;5092576;28;20497;-65
2023/08/27 04:57:42;;;;;;;5.93;5.30;;;;;;;;;;5092620;28;20458;-65
2023/08/27 05:00:09;;;;;;;5.50;5.03;;;;;;;;;;5092458;28;20804;-65
2023/08/27 05:02:36;;;;;;;6.20;5.60;;;;;;;;;;5092401;28;20775;-65
2023/08/27 05:05:02;;;;;;;6.67;5.20;;;;;;;;;;5092312;28;20437;-65
2023/08/27 05:07:28;;;;;;;6.10;5.40;;;;;;;;;;5092506;28;20415;-65
2023/08/27 05:09:59;;;;;;;6.13;5.53;;;;;;;;;;5092794;28;20479;-65
2023/08/27 05:12:27;;;;;;;6.33;5.67;;;;;;;;;;5092341;28;20433;-65
2023/08/27 05:14:53;;;;;;;5.17;4.77;;;;;;;;;;5091993;28;20444;-65
2023/08/27 05:17:19;;;;;;;5.50;5.00;;;;;;;;;;5091028;28;20475;-64
2023/08/27 05:19:47;;;;;;;11.13;5.53;;;;;;;;;;5092552;28;20432;-64
2023/08/27 05:22:16;;;;;;;5.73;5.33;;;;;;;;;;5092514;28;20498;-64
2023/08/27 05:24:42;;;;;;;5.67;5.17;;;;;;;;;;5092353;28;20434;-64
2023/08/27 05:27:08;;;;;;;6.10;5.60;;;;;;;;;;5092641;28;20883;-64
2023/08/27 05:29:36;;;;;;;6.50;5.30;;;;;;;;;;5092415;28;20411;-64
2023/08/27 05:32:03;;;;;;;7.60;5.60;;;;;;;;;;5092299;28;20422;-64
2023/08/27 05:34:29;;;;;;;6.13;5.30;;;;;;;;;;5092833;28;20417;-64
2023/08/27 05:36:55;;;;;;;8.33;4.90;;;;;;;;;;5096803;28;20421;-64
2023/08/27 05:39:21;;;;;;;6.00;5.50;;;;;;;;;;5096491;28;20498;-64
2023/08/27 05:41:47;;;;;;;5.23;4.63;;;;;;;;;;5096409;28;20436;-64
2023/08/27 05:44:15;;;;;;;6.10;5.13;;;;;;;;;;5095171;28;20413;-64
2023/08/27 05:46:41;;;;;;;5.77;4.63;;;;;;;;;;5096274;28;20842;-64
2023/08/27 05:49:09;;;;;;;6.13;4.43;;;;;;;;;;5096290;28;20443;-64
2023/08/27 05:51:38;;;;;;;9.07;4.60;;;;;;;;;;5096136;28;21033;-64
2023/08/27 05:54:04;;;;;;;4.40;4.20;;;;;;;;;;5096145;28;20409;-64
2023/08/27 05:56:30;;;;;;;5.07;4.67;;;;;;;;;;5096023;28;21152;-64
2023/08/27 05:58:57;;;;;;;6.67;4.60;;;;;;;;;;5095965;28;20470;-64
2023/08/27 06:01:23;;;;;;;6.33;5.00;;;;;;;;;;5096064;28;20870;-64
2023/08/27 06:03:49;;;;;;;6.20;4.90;;;;;;;;;;5095965;28;20492;-64
2023/08/27 06:06:15;;;;;;;6.43;4.47;;;;;;;;;;5095847;28;20791;-64
2023/08/27 06:08:41;;;;;;;4.87;4.43;;;;;;;;;;5095655;28;20513;-64
2023/08/27 06:11:08;;;;;;;4.60;4.40;;;;;;;;;;5095601;28;20919;-64
2023/08/27 06:13:34;;;;;;;9.27;4.07;;;;;;;;;;5094506;28;20443;-64
2023/08/27 06:16:00;;;;;;;3.67;3.50;;;;;;;;;;5095551;28;20428;-64
2023/08/27 06:18:26;;;;;;;7.93;4.60;;;;;;;;;;5095596;28;20968;-64
2023/08/27 06:20:51;;;;;;;4.70;4.30;;;;;;;;;;5095600;28;20436;-64
2023/08/27 06:23:18;;;;;;;5.20;4.20;;;;;;;;;;5095520;28;20410;-64
2023/08/27 06:25:44;;;;;;;4.60;4.33;;;;;;;;;;5095478;28;20432;-64
2023/08/27 06:28:10;;;;;;;5.20;4.90;;;;;;;;;;5095503;28;20434;-64
2023/08/27 06:30:41;;;;;;;4.53;4.17;;;;;;;;;;5095300;28;20410;-64
2023/08/27 06:33:10;;;;;;;4.90;4.60;;;;;;;;;;5095517;28;20416;-65
2023/08/27 06:35:36;;;;;;;5.10;4.53;;;;;;;;;;5095562;28;20437;-65
2023/08/27 06:38:03;;;;;;;4.83;4.33;;;;;;;;;;5094029;28;20836;-65
2023/08/27 06:40:29;;;;;;;5.53;4.90;;;;;;;;;;5094257;28;20425;-65
2023/08/27 06:42:59;;;;;;;5.03;4.20;;;;;;;;;;5095036;28;20418;-65
2023/08/27 06:45:27;;;;;;;7.37;4.40;;;;;;;;;;5094913;28;20440;-65
2023/08/27 06:47:53;;;;;;;4.33;3.93;;;;;;;;;;5094850;28;20412;-64
2023/08/27 06:50:20;;;;;;;10.13;4.47;;;;;;;;;;5095252;28;20443;-64
2023/08/27 06:52:46;;;;;;;5.80;3.97;;;;;;;;;;5095052;28;20776;-64
2023/08/27 06:55:12;;;;;;;6.63;3.97;;;;;;;;;;5095006;28;20426;-65
2023/08/27 06:57:38;;;;;;;3.77;3.53;;;;;;;;;;5095014;28;20834;-65
2023/08/27 07:00:07;;;;;;;4.40;4.10;;;;;;;;;;5095420;28;20391;-64
2023/08/27 07:02:33;;;;;;;4.67;3.57;;;;;;;;;;5094921;28;20446;-64
2023/08/27 07:05:00;;;;;;;4.80;4.40;;;;;;;;;;5094831;28;20871;-65
2023/08/27 07:07:26;;;;;;;8.83;3.87;;;;;;;;;;5094825;28;20421;-64
2023/08/27 07:09:52;;;;;;;7.50;5.10;;;;;;;;;;5094851;28;20421;-65
2023/08/27 07:12:21;;;;;;;4.13;3.87;;;;;;;;;;5094670;28;20449;-64
2023/08/27 07:14:49;;;;;;;7.40;4.07;;;;;;;;;;5094962;28;20500;-65
2023/08/27 07:17:15;;;;;;;4.23;4.03;;;;;;;;;;5094632;28;20498;-64
2023/08/27 07:19:41;;;;;;;7.50;4.00;;;;;;;;;;5094652;28;21006;-65
2023/08/27 07:22:07;;;;;;;4.20;3.90;;;;;;;;;;5094424;28;20927;-64
2023/08/27 07:24:36;;;;;;;12.43;4.40;;;;;;;;;;5093075;28;20452;-64
2023/08/27 07:27:03;;;;;;;4.23;3.80;;;;;;;;;;5093195;28;20441;-64
2023/08/27 07:29:29;;;;;;;4.50;4.20;;;;;;;;;;5094563;28;20411;-64
2023/08/27 07:31:58;;;;;;;4.50;3.93;;;;;;;;;;5094417;28;20872;-64
2023/08/27 07:34:26;;;;;;;4.47;4.27;;;;;;;;;;5094364;28;20422;-64
2023/08/27 07:36:54;;;;;;;8.83;4.47;;;;;;;;;;5094316;28;20445;-64
2023/08/27 07:39:20;;;;;;;6.20;4.30;;;;;;;;;;5094203;28;20466;-64
2023/08/27 07:41:46;;;;;;;4.50;4.30;;;;;;;;;;5093663;28;20413;-64
2023/08/27 07:44:12;;;;;;;8.20;4.07;;;;;;;;;;5094010;28;20407;-64
2023/08/27 07:46:38;;;;;;;5.10;3.93;;;;;;;;;;5092584;28;20450;-64
2023/08/27 07:49:05;;;;;;;4.77;4.10;;;;;;;;;;5094087;28;20902;-64
2023/08/27 07:51:31;;;;;;;3.87;3.67;;;;;;;;;;5093971;28;20434;-64
2023/08/27 07:53:59;;;;;;;13.93;4.87;;;;;;;;;;5092487;28;20428;-64
2023/08/27 07:56:25;;;;;;;5.37;3.60;;;;;;;;;;5093739;28;20449;-64
2023/08/27 07:58:52;;;;;;;4.33;4.07;;;;;;;;;;5092759;28;20470;-64
2023/08/27 08:01:18;;;;;;;7.80;3.20;;;;;;;;;;5093578;28;20436;-64
2023/08/27 08:03:44;;;;;;;5.50;2.33;;;;;;;;;;5093562;28;20960;-64
2023/08/27 08:06:10;;;;;;;5.53;2.37;;;;;;;;;;5094105;28;20473;-64
2023/08/27 08:08:36;;;;;;;2.97;2.50;;;;;;;;;;5093624;28;20411;-64
2023/08/27 08:11:04;;;;;;;2.70;2.50;;;;;;;;;;5093536;28;20989;-64
2023/08/27 08:13:32;;;;;;;3.90;3.13;;;;;;;;;;5093402;28;20540;-64
2023/08/27 08:16:02;;;;;;;3.07;2.87;;;;;;;;;;5093338;28;20449;-64
2023/08/27 08:18:30;;;;;;;3.17;2.57;;;;;;;;;;5091988;28;20471;-64
2023/08/27 08:20:59;;;;;;;3.83;2.90;;;;;;;;;;5093249;28;20906;-64
2023/08/27 08:23:28;;;;;;;4.27;3.37;;;;;;;;;;5093846;28;20762;-64
2023/08/27 08:25:54;;;;;;;3.10;2.90;;;;;;;;;;5093075;28;20413;-64
2023/08/27 08:28:22;;;;;;;3.40;3.20;;;;;;;;;;5093137;28;20429;-64
2023/08/27 08:30:49;;;;;;;2.80;2.60;;;;;;;;;;5091909;28;20834;-64
2023/08/27 08:33:15;;;;;;;3.43;3.13;;;;;;;;;;5093073;28;20420;-64
2023/08/27 08:35:42;;;;;;;3.10;2.90;;;;;;;;;;5093171;28;20407;-64
2023/08/27 08:38:08;;;;;;;2.90;2.70;;;;;;;;;;5093075;28;20554;-64
2023/08/27 08:40:39;;;;;;;2.73;2.50;;;;;;;;;;5092986;28;20415;-64
2023/08/27 08:43:06;;;;;;;4.47;3.63;;;;;;;;;;5093053;28;20414;-64
2023/08/27 08:45:42;;;;;;;3.23;3.03;;;;;;;;;;5092899;28;20412;-64
2023/08/27 08:48:11;;;;;;;4.23;3.30;;;;;;;;;;5092787;28;20468;-64
2023/08/27 08:50:39;;;;;;;2.93;2.77;;;;;;;;;;5093194;28;20797;-64
2023/08/27 08:53:14;;;;;;;3.60;3.33;;;;;;;;;;5092712;28;20547;-64
2023/08/27 08:55:45;;;;;;;6.60;2.73;;;;;;;;;;5092954;28;20395;-64
2023/08/27 08:58:12;;;;;;;3.63;3.07;;;;;;;;;;5092860;28;20471;-64
2023/08/27 09:00:38;;;;;;;2.77;2.67;;;;;;;;;;5092958;28;20392;-64
2023/08/27 09:03:04;;;;;;;3.77;2.77;;;;;;;;;;5092927;28;20875;-64
2023/08/27 09:05:34;;;;;;;3.37;3.07;;;;;;;;;;5092684;28;20419;-64
2023/08/27 09:08:03;;;;;;;3.00;2.80;;;;;;;;;;5092781;28;20424;-64
2023/08/27 09:10:29;;;;;;;3.47;3.10;;;;;;;;;;5092393;28;20432;-65
2023/08/27 09:12:56;;;;;;;3.03;2.93;;;;;;;;;;5092629;28;20551;-64
2023/08/27 09:15:24;;;;;;;3.30;3.10;;;;;;;;;;5092593;28;20459;-64
2023/08/27 09:17:53;;;;;;;2.50;2.40;;;;;;;;;;5092573;28;20466;-65
2023/08/27 09:20:19;;;;;;;2.97;2.97;;;;;;;;;;5092683;28;20438;-65
2023/08/27 09:22:45;;;;;;;3.17;2.87;;;;;;;;;;5092733;28;20533;-65
2023/08/27 09:25:13;;;;;;;3.33;3.03;;;;;;;;;;5092708;28;20448;-64
2023/08/27 09:27:40;;;;;;;3.37;3.10;;;;;;;;;;5092399;28;20771;-64
2023/08/27 09:30:11;;;;;;;2.80;2.60;;;;;;;;;;5092677;28;20464;-64
2023/08/27 09:32:37;;;;;;;4.30;3.53;;;;;;;;;;5092431;28;20447;-64
2023/08/27 09:35:06;;;;;;;3.17;3.07;;;;;;;;;;5092456;28;20422;-64
2023/08/27 09:37:41;;;;;;;7.50;3.00;;;;;;;;;;5092514;28;20966;-64
2023/08/27 09:40:07;;;;;;;5.23;2.60;;;;;;;;;;5092440;28;20414;-64
2023/08/27 09:42:33;;;;;;;3.20;3.10;;;;;;;;;;5092439;28;20420;-64
2023/08/27 09:45:02;;;;;;;3.33;3.03;;;;;;;;;;5092499;28;20426;-64
2023/08/27 09:47:36;;;;;;;3.23;2.53;;;;;;;;;;5090985;28;20931;-64
2023/08/27 09:50:05;;;;;;;18.90;14.63;;;;;;;;;;5092393;28;20417;-64
2023/08/27 09:52:31;;;;;;;2.93;2.70;;;;;;;;;;5092174;28;20436;-64
2023/08/27 09:54:57;;;;;;;29.37;17.00;;;;;;;;;;5092396;28;20408;-64
2023/08/27 09:57:28;;;;;;;47.60;27.57;;;;;;;;;;5091212;28;20451;-64
2023/08/27 09:59:54;;;;;;;77.40;45.33;;;;;;;;;;5092167;28;20426;-64
2023/08/27 10:02:20;;;;;;;54.67;33.20;;;;;;;;;;5091918;28;20438;-64
2023/08/27 10:04:58;;;;;;;6.97;6.40;;;;;;;;;;5092308;28;20500;-64
2023/08/27 10:07:26;;;;;;;2.80;2.30;;;;;;;;;;5092429;28;20476;-65
2023/08/27 10:09:53;;;;;;;2.30;2.20;;;;;;;;;;5090989;28;20454;-65
2023/08/27 10:12:22;;;;;;;2.10;2.00;;;;;;;;;;5091747;28;20825;-65
2023/08/27 10:14:48;;;;;;;6.90;2.33;;;;;;;;;;5092046;28;20432;-64
2023/08/27 10:17:15;;;;;;;2.40;2.27;;;;;;;;;;5091973;28;20425;-65
2023/08/27 10:19:41;;;;;;;1.80;1.70;;;;;;;;;;5091678;28;20414;-64
2023/08/27 10:22:10;;;;;;;2.20;2.00;;;;;;;;;;5094868;28;20470;-64
2023/08/27 10:24:36;;;;;;;1.70;1.60;;;;;;;;;;5095632;28;20392;-64
2023/08/27 10:27:03;;;;;;;1.70;1.70;;;;;;;;;;5095437;28;20497;-64
2023/08/27 10:29:30;;;;;;;1.60;1.60;;;;;;;;;;5095648;28;20394;-64
2023/08/27 10:31:59;;;;;;;1.53;1.43;;;;;;;;;;5095258;28;20503;-64
2023/08/27 10:34:28;;;;;;;1.53;1.50;;;;;;;;;;5095458;28;20427;-64
2023/08/27 10:36:55;;;;;;;1.80;1.70;;;;;;;;;;5095168;28;20507;-64
2023/08/27 10:39:24;;;;;;;1.93;1.83;;;;;;;;;;5093898;28;20467;-64
2023/08/27 10:41:56;;;;;;;2.13;2.03;;;;;;;;;;5095073;28;20904;-64
2023/08/27 10:44:22;;;;;;;2.00;1.90;;;;;;;;;;5095258;28;20413;-64
2023/08/27 10:47:11;;;;;;;4.70;2.00;;;;;;;;;;5095021;28;20818;-64
2023/08/27 10:49:37;;;;;;;1.77;1.67;;;;;;;;;;5095030;28;20459;-64
2023/08/27 10:52:19;;;;;;;1.80;1.80;;;;;;;;;;5095129;28;20903;-64
2023/08/27 10:54:46;;;;;;;1.87;1.87;;;;;;;;;;5094907;28;20880;-64
2023/08/27 10:57:20;;;;;;;1.70;1.63;;;;;;;;;;5094902;28;20435;-64
2023/08/27 10:59:46;;;;;;;2.00;1.90;;;;;;;;;;5094733;28;20419;-64
2023/08/27 11:02:16;;;;;;;5.03;1.67;;;;;;;;;;5094795;28;20459;-64
2023/08/27 11:04:43;;;;;;;4.60;1.70;;;;;;;;;;5094759;28;20495;-64
2023/08/27 11:07:10;;;;;;;1.67;1.37;;;;;;;;;;5094784;28;20506;-64
2023/08/27 11:09:44;;;;;;;2.00;1.90;;;;;;;;;;5094876;28;20540;-64
2023/08/27 11:12:22;;;;;;;1.23;1.23;;;;;;;;;;5094638;28;20468;-64
2023/08/27 11:14:48;;;;;;;1.80;1.60;;;;;;;;;;5094750;28;20481;-64
2023/08/27 11:17:22;;;;;;;5.37;1.60;;;;;;;;;;5094530;28;20423;-64
2023/08/27 11:19:48;;;;;;;2.63;1.70;;;;;;;;;;5094413;28;20897;-64
2023/08/27 11:22:14;;;;;;;1.80;1.70;;;;;;;;;;5094415;28;20439;-64
2023/08/27 11:24:44;;;;;;;1.60;1.60;;;;;;;;;;5094578;28;20884;-64
2023/08/27 11:27:13;;;;;;;1.60;1.50;;;;;;;;;;5094415;28;20770;-64
2023/08/27 11:29:42;;;;;;;3.67;1.73;;;;;;;;;;5094234;28;20414;-64
2023/08/27 11:32:09;;;;;;;2.50;1.67;;;;;;;;;;5093210;28;20409;-64
2023/08/27 11:34:39;;;;;;;1.70;1.60;;;;;;;;;;5093899;28;20427;-64
2023/08/27 11:37:06;;;;;;;1.57;1.57;;;;;;;;;;5094191;28;20941;-64
2023/08/27 11:39:33;;;;;;;2.13;1.93;;;;;;;;;;5093909;28;20567;-64
2023/08/27 11:41:59;;;;;;;4.70;1.27;;;;;;;;;;5094045;28;20429;-64
2023/08/27 11:44:25;;;;;;;2.43;2.00;;;;;;;;;;5093957;28;20492;-64
2023/08/27 11:46:51;;;;;;;1.27;1.17;;;;;;;;;;5093883;28;20405;-64
2023/08/27 11:49:30;;;;;;;1.30;1.20;;;;;;;;;;5093872;28;20417;-64
2023/08/27 11:51:57;;;;;;;1.80;1.60;;;;;;;;;;5093864;28;20409;-64
2023/08/27 11:54:28;;;;;;;3.70;1.90;;;;;;;;;;5093952;28;20769;-64
2023/08/27 11:56:54;;;;;;;2.23;1.87;;;;;;;;;;5094003;28;20417;-64
2023/08/27 11:59:22;;;;;;;1.63;1.53;;;;;;;;;;5093811;28;20798;-64
2023/08/27 12:01:48;;;;;;;1.80;1.67;;;;;;;;;;5093663;28;20482;-64
2023/08/27 12:04:18;;;;;;;1.83;1.73;;;;;;;;;;5093656;28;20413;-64
2023/08/27 12:06:51;;;;;;;1.93;1.50;;;;;;;;;;5093663;28;20406;-64
2023/08/27 12:09:36;;;;;;;2.30;1.30;;;;;;;;;;5093498;28;20441;-64
2023/08/27 12:12:02;;;;;;;1.50;1.40;;;;;;;;;;5093334;28;20784;-64
2023/08/27 12:14:29;;;;;;;2.00;1.30;;;;;;;;;;5093651;28;20440;-64
2023/08/27 12:17:01;;;;;;;2.20;1.57;;;;;;;;;;5093262;28;20500;-64
2023/08/27 12:19:27;;;;;;;5.03;3.60;;;;;;;;;;5093216;28;20936;-64
2023/08/27 12:21:54;;;;;;;2.33;1.90;;;;;;;;;;5093013;28;20445;-64
2023/08/27 12:24:28;;;;;;;1.80;1.70;;;;;;;;;;5093271;28;20942;-64
2023/08/27 12:26:54;;;;;;;2.17;1.97;;;;;;;;;;5093253;28;20490;-64
2023/08/27 12:29:20;;;;;;;2.20;1.57;;;;;;;;;;5093282;28;20826;-64
2023/08/27 12:31:46;;;;;;;3.70;2.07;;;;;;;;;;5093142;28;20417;-64
2023/08/27 12:34:12;;;;;;;1.50;1.50;;;;;;;;;;5092787;28;20548;-64
2023/08/27 12:36:40;;;;;;;1.73;1.63;;;;;;;;;;5093214;28;20458;-64
2023/08/27 12:39:06;;;;;;;1.40;1.30;;;;;;;;;;5092850;28;20472;-64
2023/08/27 12:41:35;;;;;;;3.90;1.80;;;;;;;;;;5093046;28;20743;-64
2023/08/27 12:44:01;;;;;;;1.77;1.67;;;;;;;;;;5092454;28;20427;-64
2023/08/27 12:46:27;;;;;;;1.70;1.53;;;;;;;;;;5092590;28;20961;-64
2023/08/27 12:48:55;;;;;;;1.53;1.43;;;;;;;;;;5092889;28;20429;-64
2023/08/27 12:51:21;;;;;;;3.13;1.70;;;;;;;;;;5092950;28;20420;-64
2023/08/27 12:53:47;;;;;;;1.60;1.60;;;;;;;;;;5092782;28;20420;-64
2023/08/27 12:56:13;;;;;;;2.90;1.73;;;;;;;;;;5092859;28;20421;-64
2023/08/27 12:58:39;;;;;;;2.83;1.90;;;;;;;;;;5092799;28;20977;-64
2023/08/27 13:01:05;;;;;;;2.80;2.47;;;;;;;;;;5092717;28;20506;-64
2023/08/27 13:03:31;;;;;;;1.90;1.80;;;;;;;;;;5092734;28;20438;-64
2023/08/27 13:05:57;;;;;;;2.83;1.87;;;;;;;;;;5092824;28;20771;-64
2023/08/27 13:08:25;;;;;;;2.50;2.30;;;;;;;;;;5092633;28;20519;-64
2023/08/27 13:10:51;;;;;;;4.03;2.30;;;;;;;;;;5092729;28;20420;-64
2023/08/27 13:13:19;;;;;;;2.33;2.13;;;;;;;;;;5092510;28;20795;-64
2023/08/27 13:15:48;;;;;;;2.17;2.07;;;;;;;;;;5092556;28;20411;-63
2023/08/27 13:18:15;;;;;;;1.97;1.87;;;;;;;;;;5092404;28;20884;-64
2023/08/27 13:20:41;;;;;;;1.67;1.57;;;;;;;;;;5092717;28;20437;-64
2023/08/27 13:23:07;;;;;;;2.13;2.03;;;;;;;;;;5092430;28;20487;-65
2023/08/27 13:25:33;;;;;;;1.90;1.80;;;;;;;;;;5092534;28;20476;-65
2023/08/27 13:27:59;;;;;;;2.63;2.43;;;;;;;;;;5092827;28;20869;-65
2023/08/27 13:30:25;;;;;;;2.33;2.20;;;;;;;;;;5092418;28;20462;-65
2023/08/27 13:32:51;;;;;;;2.40;2.00;;;;;;;;;;5092579;28;20409;-65
2023/08/27 13:35:17;;;;;;;4.07;1.93;;;;;;;;;;5092183;28;20414;-65
2023/08/27 13:37:43;;;;;;;3.03;2.00;;;;;;;;;;5091978;28;20472;-65
2023/08/27 13:40:09;;;;;;;3.53;1.77;;;;;;;;;;5092110;28;20772;-65
2023/08/27 13:42:35;;;;;;;2.03;1.80;;;;;;;;;;5092308;28;20414;-64
2023/08/27 13:45:01;;;;;;;2.50;1.93;;;;;;;;;;5092099;28;20429;-65
2023/08/27 13:47:27;;;;;;;3.77;1.83;;;;;;;;;;5092335;28;20415;-65
2023/08/27 13:49:53;;;;;;;1.93;1.83;;;;;;;;;;5092318;28;20430;-65
2023/08/27 13:52:19;;;;;;;2.10;1.83;;;;;;;;;;5092287;28;20772;-65
2023/08/27 13:54:46;;;;;;;3.13;2.30;;;;;;;;;;5092243;28;20440;-65
2023/08/27 13:57:13;;;;;;;2.80;2.10;;;;;;;;;;5095286;28;20409;-65
2023/08/27 13:59:40;;;;;;;3.40;1.87;;;;;;;;;;5096018;28;20669;-65
2023/08/27 14:02:07;;;;;;;2.10;2.00;;;;;;;;;;5094791;28;20430;-65
2023/08/27 14:04:33;;;;;;;1.70;1.60;;;;;;;;;;5095860;28;20491;-65
2023/08/27 14:06:59;;;;;;;1.90;1.80;;;;;;;;;;5096261;28;20409;-65
2023/08/27 14:09:25;;;;;;;2.60;1.63;;;;;;;;;;5095814;28;20796;-65
2023/08/27 14:11:54;;;;;;;4.10;1.90;;;;;;;;;;5095782;28;20510;-65
2023/08/27 14:14:20;;;;;;;1.87;1.77;;;;;;;;;;5095709;28;20478;-65
2023/08/27 14:16:46;;;;;;;4.23;2.07;;;;;;;;;;5095757;28;20445;-65
2023/08/27 14:19:12;;;;;;;3.73;1.70;;;;;;;;;;5095610;28;20469;-65
2023/08/27 14:21:40;;;;;;;1.93;1.90;;;;;;;;;;5095641;28;20418;-65
2023/08/27 14:24:07;;;;;;;1.70;1.60;;;;;;;;;;5095622;28;20914;-65
2023/08/27 14:26:37;;;;;;;2.77;2.37;;;;;;;;;;5095628;28;20412;-65
2023/08/27 14:29:03;;;;;;;1.87;1.70;;;;;;;;;;5095592;28;20448;-65
2023/08/27 14:31:29;;;;;;;2.20;2.10;;;;;;;;;;5095439;28;20835;-65
2023/08/27 14:33:56;;;;;;;5.50;2.03;;;;;;;;;;5095411;28;20536;-65
2023/08/27 14:36:22;;;;;;;2.83;2.00;;;;;;;;;;5095195;28;20427;-65
2023/08/27 14:38:48;;;;;;;2.10;1.90;;;;;;;;;;5095069;28;20473;-65
2023/08/27 14:41:14;;;;;;;6.27;2.20;;;;;;;;;;5095217;28;20411;-65